CST,Max TemperatureF,Mean TemperatureF,Min TemperatureF,Max Dew PointF,MeanDew PointF,Min DewpointF,Max Humidity, Mean Humidity, Min Humidity, Max Sea Level PressureIn, Mean Sea Level PressureIn, Min Sea Level PressureIn, Max VisibilityMiles, Mean VisibilityMiles, Min VisibilityMiles, Max Wind SpeedMPH, Mean Wind SpeedMPH, Max Gust SpeedMPH,PrecipitationIn, CloudCover, Events, WindDirDegrees
2014-2-1,23,14,4,16,10,-2,84,71,57,30.39,30.13,29.92,10,9,2,24,11,30,0.01,5,Snow,332
2014-2-2,27,12,-4,14,4,-8,79,67,55,30.43,30.35,30.25,10,10,10,20,10,23,0.00,0,,220
2014-2-3,28,19,9,16,12,4,84,69,53,30.27,30.21,30.08,10,10,9,17,8,21,T,6,Snow,169
2014-2-4,24,14,4,16,6,-3,86,77,68,30.56,30.31,30.18,10,4,0,30,17,35,0.10,8,Snow,26
2014-2-5,8,-1,-10,-2,-7,-17,79,67,55,30.78,30.66,30.44,10,8,2,30,16,35,0.01,3,Snow,346
2014-2-6,7,-3,-14,-4,-11,-21,74,65,55,30.74,30.63,30.45,10,10,10,15,9,18,0.00,4,,263
2014-2-7,14,9,4,7,2,-4,83,75,66,30.42,30.25,30.06,10,10,7,18,12,23,T,7,,191
2014-2-8,25,18,11,14,11,7,84,71,57,30.31,30.12,29.94,10,8,2,17,10,22,0.01,5,Snow,324
2014-2-9,18,14,9,13,4,1,88,77,66,30.51,30.38,30.22,10,6,0,17,10,20,0.06,8,Snow,8
2014-2-10,13,10,6,5,2,-1,76,71,66,30.55,30.51,30.47,10,10,9,13,4,14,T,8,,147
2014-2-11,25,17,9,17,11,3,80,74,68,30.48,30.25,30.03,10,10,9,22,15,27,T,7,,179
2014-2-12,34,28,22,28,22,17,81,75,69,30.21,30.06,29.83,10,10,8,33,13,38,T,6,,310
2014-2-13,54,42,29,33,28,22,78,60,41,29.86,29.77,29.60,10,10,10,26,11,33,0.00,1,,241
2014-2-14,36,30,23,30,21,18,81,71,61,30.10,29.98,29.69,10,10,10,22,10,27,T,3,Rain,13
2014-2-15,57,42,27,32,25,21,78,52,25,30.13,29.95,29.85,10,10,10,33,14,43,0.00,4,,263
2014-2-16,43,34,24,30,27,21,92,75,57,30.14,29.98,29.80,10,9,5,24,12,29,0.00,3,,146
2014-2-17,58,46,34,33,23,14,82,50,17,30.03,29.92,29.79,10,10,9,28,15,33,T,2,Rain,267
2014-2-18,66,47,27,27,21,18,63,41,18,30.02,29.79,29.67,10,10,10,32,14,43,0.00,0,,270
2014-2-19,55,39,23,24,21,18,75,49,22,29.99,29.79,29.55,10,10,10,24,12,30,0.00,0,,195
2014-2-20,45,35,24,31,24,13,89,59,29,29.88,29.70,29.57,10,8,1,46,21,56,0.09,5,Snow,333
2014-2-21,52,37,22,22,18,13,74,48,21,29.88,29.84,29.79,10,10,10,28,10,37,0.00,1,,267
2014-2-22,43,36,28,24,19,12,69,51,32,30.22,30.03,29.88,10,10,10,18,10,22,0.00,5,,18
2014-2-23,31,27,22,14,10,6,60,50,39,30.42,30.35,30.18,10,10,2,15,7,19,T,8,Snow,33
2014-2-24,30,22,14,20,17,7,92,71,50,30.45,30.30,30.10,10,8,1,32,11,38,0.04,8,Snow,99
2014-2-25,17,12,6,8,3,-2,80,66,51,30.59,30.47,30.37,10,8,2,26,14,34,0.01,6,Snow,348
2014-2-26,38,20,2,14,7,-3,79,53,27,30.56,30.21,30.02,10,10,10,29,13,35,0.00,0,,265
2014-2-27,29,18,6,10,3,-1,76,56,36,30.18,30.04,29.84,10,10,10,20,12,24,0.00,1,,101
2014-2-28,37,26,15,22,13,0,81,61,41,30.22,29.94,29.75,10,8,2,28,13,33,T,6,Snow,11